createdAt,value
2023-01-07T00:00:09.367Z,22.0500
2023-01-07T00:00:20.694Z,22.0500
2023-01-07T00:00:31.949Z,22.0500
2023-01-07T00:00:43.133Z,22.0500
2023-01-07T00:00:54.158Z,22.0500
2023-01-07T00:01:05.223Z,22.0500
2023-01-07T00:01:16.317Z,22.0500
2023-01-07T00:01:27.374Z,22.0500
2023-01-07T00:01:38.459Z,22.0500
2023-01-07T00:01:49.610Z,22.0500
2023-01-07T00:02:00.673Z,22.0500
2023-01-07T00:02:11.754Z,22.0500
2023-01-07T00:02:22.855Z,22.0500
2023-01-07T00:02:34.144Z,22.0500
2023-01-07T00:02:45.446Z,22.0600
2023-01-07T00:02:56.629Z,22.0600
2023-01-07T00:03:07.720Z,22.0600
2023-01-07T00:03:18.881Z,22.0500
2023-01-07T00:03:30.126Z,22.0500
2023-01-07T00:03:41.360Z,22.0500
2023-01-07T00:03:52.536Z,22.0500
2023-01-07T00:04:03.719Z,22.0500
2023-01-07T00:04:14.875Z,22.0500
2023-01-07T00:04:25.945Z,22.0500
2023-01-07T00:04:37.029Z,22.0500
2023-01-07T00:04:48.147Z,22.0500
2023-01-07T00:04:59.360Z,22.0600
2023-01-07T00:05:10.419Z,22.0600
2023-01-07T00:05:21.486Z,22.0600
2023-01-07T00:05:32.546Z,22.0700
2023-01-07T00:05:43.617Z,22.0800
2023-01-07T00:05:54.716Z,22.0900
2023-01-07T00:06:05.925Z,22.0900
2023-01-07T00:06:16.960Z,22.0900
2023-01-07T00:06:28.047Z,22.0900
2023-01-07T00:06:39.120Z,22.1000
2023-01-07T00:06:50.314Z,22.1000
2023-01-07T00:07:01.348Z,22.1100
2023-01-07T00:07:12.416Z,22.1100
2023-01-07T00:07:23.456Z,22.1100
2023-01-07T00:07:34.570Z,22.1100
2023-01-07T00:07:45.626Z,22.1100
2023-01-07T00:07:56.691Z,22.1200
2023-01-07T00:08:07.848Z,22.1200
2023-01-07T00:08:18.920Z,22.1200
2023-01-07T00:08:29.995Z,22.1200
2023-01-07T00:08:41.042Z,22.1200
2023-01-07T00:08:52.111Z,22.1200
2023-01-07T00:09:03.191Z,22.1200
2023-01-07T00:09:14.419Z,22.1200
2023-01-07T00:09:25.602Z,22.1200
2023-01-07T00:09:36.794Z,22.1200
2023-01-07T00:09:48.015Z,22.1200
2023-01-07T00:09:59.198Z,22.1200
2023-01-07T00:10:10.407Z,22.1200
2023-01-07T00:10:21.596Z,22.1200
2023-01-07T00:10:32.801Z,22.1200
2023-01-07T00:10:43.979Z,22.1200
2023-01-07T00:10:55.195Z,22.1200
2023-01-07T00:11:06.249Z,22.1300
2023-01-07T00:11:17.338Z,22.1300
2023-01-07T00:11:28.466Z,22.1300
2023-01-07T00:11:39.692Z,22.1300
2023-01-07T00:11:50.752Z,22.1400
2023-01-07T00:12:01.805Z,22.1300
2023-01-07T00:12:12.846Z,22.1300
2023-01-07T00:12:23.915Z,22.1300
2023-01-07T00:12:35.076Z,22.1300
2023-01-07T00:12:46.129Z,22.1300
2023-01-07T00:12:57.200Z,22.1300
2023-01-07T00:13:08.307Z,22.1300
2023-01-07T00:13:19.365Z,22.1300
2023-01-07T00:13:30.441Z,22.1300
2023-01-07T00:13:41.586Z,22.1300
2023-01-07T00:13:52.790Z,22.1200
2023-01-07T00:14:03.987Z,22.1200
2023-01-07T00:14:15.213Z,22.1200
2023-01-07T00:14:26.260Z,22.1200
2023-01-07T00:14:37.341Z,22.1200
2023-01-07T00:14:48.474Z,22.1200
2023-01-07T00:14:59.576Z,22.1300
2023-01-07T00:15:10.611Z,22.1200
2023-01-07T00:15:21.754Z,22.1200
2023-01-07T00:15:32.827Z,22.1300
2023-01-07T00:15:43.912Z,22.1300
2023-01-07T00:15:55.082Z,22.1200
2023-01-07T00:16:06.155Z,22.1200
2023-01-07T00:16:17.299Z,22.1200
2023-01-07T00:16:28.504Z,22.1200
2023-01-07T00:16:39.542Z,22.1200
2023-01-07T00:16:50.707Z,22.1300
2023-01-07T00:17:01.900Z,22.1300
2023-01-07T00:17:13.123Z,22.1300
2023-01-07T00:17:24.185Z,22.1300
2023-01-07T00:17:35.298Z,22.1300
2023-01-07T00:17:46.357Z,22.1400
2023-01-07T00:17:57.603Z,22.1400
2023-01-07T00:18:08.835Z,22.1400
2023-01-07T00:18:19.989Z,22.1400
2023-01-07T00:18:31.052Z,22.1400
2023-01-07T00:18:42.130Z,22.1400
2023-01-07T00:18:53.209Z,22.1400
2023-01-07T00:19:04.297Z,22.1400
2023-01-07T00:19:15.345Z,22.1400
2023-01-07T00:19:26.545Z,22.1500
2023-01-07T00:19:37.584Z,22.1500
2023-01-07T00:19:48.640Z,22.1500
2023-01-07T00:19:59.710Z,22.1500
2023-01-07T00:20:10.785Z,22.1500
2023-01-07T00:20:21.919Z,22.1600
2023-01-07T00:20:33.120Z,22.1600
2023-01-07T00:20:44.305Z,22.1600
2023-01-07T00:20:55.516Z,22.1500
2023-01-07T00:21:06.586Z,22.1600
2023-01-07T00:21:17.649Z,22.1600
2023-01-07T00:21:28.708Z,22.1600
2023-01-07T00:21:39.767Z,22.1600
2023-01-07T00:21:50.874Z,22.1600
2023-01-07T00:22:02.200Z,22.1600
2023-01-07T00:22:13.259Z,22.1600
2023-01-07T00:22:24.467Z,22.1500
2023-01-07T00:22:35.551Z,22.1500
2023-01-07T00:22:46.633Z,22.1500
2023-01-07T00:22:57.751Z,22.1500
2023-01-07T00:23:08.956Z,22.1500
2023-01-07T00:23:20.154Z,22.1500
2023-01-07T00:23:31.360Z,22.1500
2023-01-07T00:23:42.541Z,22.1600
2023-01-07T00:23:53.750Z,22.1600
2023-01-07T00:24:04.948Z,22.1500
2023-01-07T00:24:18.283Z,22.1500
2023-01-07T00:24:29.625Z,22.1500
2023-01-07T00:24:40.813Z,22.1400
2023-01-07T00:24:51.866Z,22.1400
2023-01-07T00:25:02.925Z,22.1400
2023-01-07T00:25:14.081Z,22.1400
2023-01-07T00:25:25.270Z,22.1400
2023-01-07T00:25:36.465Z,22.1400
2023-01-07T00:25:47.691Z,22.1400
2023-01-07T00:25:58.741Z,22.1400
2023-01-07T00:26:09.809Z,22.1400
2023-01-07T00:26:20.879Z,22.1400
2023-01-07T00:26:31.952Z,22.1400
2023-01-07T00:26:42.998Z,22.1400
2023-01-07T00:26:54.225Z,22.1400
2023-01-07T00:27:05.290Z,22.1400
2023-01-07T00:27:16.360Z,22.1400
2023-01-07T00:27:27.523Z,22.1400
2023-01-07T00:27:38.751Z,22.1500
2023-01-07T00:27:49.916Z,22.1500
2023-01-07T00:28:01.128Z,22.1500
2023-01-07T00:28:12.300Z,22.1500
2023-01-07T00:28:23.535Z,22.1500
2023-01-07T00:28:34.806Z,22.1400
2023-01-07T00:28:45.869Z,22.1400
2023-01-07T00:28:56.925Z,22.1400
2023-01-07T00:29:08.004Z,22.1500
2023-01-07T00:29:19.075Z,22.1500
2023-01-07T00:29:30.127Z,22.1500
2023-01-07T00:29:41.260Z,22.1500
2023-01-07T00:29:52.495Z,22.1500
2023-01-07T00:30:03.680Z,22.1500
2023-01-07T00:30:14.880Z,22.1500
2023-01-07T00:30:25.946Z,22.1500
2023-01-07T00:30:37.018Z,22.1500
2023-01-07T00:30:48.165Z,22.1500
2023-01-07T00:30:59.375Z,22.1500
2023-01-07T00:31:10.543Z,22.1500
2023-01-07T00:31:21.908Z,22.1500
2023-01-07T00:31:33.127Z,22.1500
2023-01-07T00:31:44.292Z,22.1400
2023-01-07T00:31:55.399Z,22.1400
2023-01-07T00:32:06.580Z,22.1500
2023-01-07T00:32:17.755Z,22.1500
2023-01-07T00:32:28.828Z,22.1500
2023-01-07T00:32:40.019Z,22.1400
2023-01-07T00:32:51.077Z,22.1400
2023-01-07T00:33:02.227Z,22.1300
2023-01-07T00:33:13.441Z,22.1300
2023-01-07T00:33:24.526Z,22.1300
2023-01-07T00:33:35.573Z,22.1200
2023-01-07T00:33:46.723Z,22.1200
2023-01-07T00:33:57.921Z,22.1100
2023-01-07T00:34:09.328Z,22.1100
2023-01-07T00:34:20.675Z,22.1100
2023-01-07T00:34:31.713Z,22.1000
2023-01-07T00:34:42.795Z,22.1000
2023-01-07T00:34:53.856Z,22.1000
2023-01-07T00:35:04.927Z,22.1000
2023-01-07T00:35:15.990Z,22.1000
2023-01-07T00:35:27.215Z,22.1000
2023-01-07T00:35:38.260Z,22.1000
2023-01-07T00:35:49.329Z,22.1100
2023-01-07T00:36:00.468Z,22.1000
2023-01-07T00:36:11.673Z,22.1000
2023-01-07T00:36:22.865Z,22.1000
2023-01-07T00:36:34.100Z,22.1100
2023-01-07T00:36:45.162Z,22.1100
2023-01-07T00:36:56.217Z,22.1100
2023-01-07T00:37:07.477Z,22.1200
2023-01-07T00:37:18.570Z,22.1200
2023-01-07T00:37:29.625Z,22.1200
2023-01-07T00:37:40.738Z,22.1200
2023-01-07T00:37:51.823Z,22.1300
2023-01-07T00:38:03.041Z,22.1300
2023-01-07T00:38:14.125Z,22.1400
2023-01-07T00:38:25.206Z,22.1400
2023-01-07T00:38:36.331Z,22.1400
2023-01-07T00:38:47.525Z,22.1400
2023-01-07T00:38:58.599Z,22.1300
2023-01-07T00:39:09.669Z,22.1300
2023-01-07T00:39:20.876Z,22.1300
2023-01-07T00:39:31.924Z,22.1300
2023-01-07T00:39:42.988Z,22.1300
2023-01-07T00:39:54.072Z,22.1400
2023-01-07T00:40:05.319Z,22.1300
2023-01-07T00:40:16.475Z,22.1300
2023-01-07T00:40:27.676Z,22.1200
2023-01-07T00:40:38.881Z,22.1200
2023-01-07T00:40:50.069Z,22.1200
2023-01-07T00:41:01.265Z,22.1100
2023-01-07T00:41:12.316Z,22.1100
2023-01-07T00:41:23.379Z,22.1100
2023-01-07T00:41:34.560Z,22.1100
2023-01-07T00:41:45.749Z,22.1100
2023-01-07T00:41:56.960Z,22.1100
2023-01-07T00:42:08.160Z,22.1000
2023-01-07T00:42:19.234Z,22.1000
2023-01-07T00:42:30.291Z,22.1100
2023-01-07T00:42:41.477Z,22.1100
2023-01-07T00:42:52.548Z,22.1100
2023-01-07T00:43:03.615Z,22.1100
2023-01-07T00:43:14.719Z,22.1000
2023-01-07T00:43:25.918Z,22.1000
2023-01-07T00:43:37.010Z,22.1000
2023-01-07T00:43:48.092Z,22.1000
2023-01-07T00:43:59.190Z,22.1000
2023-01-07T00:44:10.809Z,22.1000
2023-01-07T00:44:21.911Z,22.0900
2023-01-07T00:44:33.120Z,22.0900
2023-01-07T00:44:44.313Z,22.1000
2023-01-07T00:44:55.523Z,22.1000
2023-01-07T00:45:06.699Z,22.1000
2023-01-07T00:45:17.915Z,22.0900
2023-01-07T00:45:29.122Z,22.0900
2023-01-07T00:45:40.310Z,22.0900
2023-01-07T00:45:51.515Z,22.0900
2023-01-07T00:46:02.726Z,22.0900
2023-01-07T00:46:13.970Z,22.1000
2023-01-07T00:46:25.056Z,22.1000
2023-01-07T00:46:36.380Z,22.1000
2023-01-07T00:46:47.561Z,22.1000
2023-01-07T00:46:58.758Z,22.0900
2023-01-07T00:47:09.825Z,22.0900
2023-01-07T00:47:20.897Z,22.0900
2023-01-07T00:47:31.950Z,22.1000
2023-01-07T00:47:43.271Z,22.1000
2023-01-07T00:47:54.430Z,22.1100
2023-01-07T00:48:05.592Z,22.1000
2023-01-07T00:48:16.790Z,22.1000
2023-01-07T00:48:27.983Z,22.0900
2023-01-07T00:48:39.199Z,22.0900
2023-01-07T00:48:50.395Z,22.0900
2023-01-07T00:49:01.602Z,22.1000
2023-01-07T00:49:12.666Z,22.1000
2023-01-07T00:49:23.739Z,22.0900
2023-01-07T00:49:34.779Z,22.1000
2023-01-07T00:49:45.849Z,22.1000
2023-01-07T00:49:56.946Z,22.1100
2023-01-07T00:50:08.158Z,22.1100
2023-01-07T00:50:19.353Z,22.1200
2023-01-07T00:50:30.398Z,22.1200
2023-01-07T00:50:41.445Z,22.1200
2023-01-07T00:50:52.637Z,22.1200
2023-01-07T00:51:03.819Z,22.1300
2023-01-07T00:51:15.025Z,22.1300
2023-01-07T00:51:26.246Z,22.1300
2023-01-07T00:51:37.461Z,22.1300
2023-01-07T00:51:48.518Z,22.1400
2023-01-07T00:51:59.622Z,22.1400
2023-01-07T00:52:10.828Z,22.1400
2023-01-07T00:52:21.925Z,22.1400
2023-01-07T00:52:32.986Z,22.1400
2023-01-07T00:52:44.189Z,22.1400
2023-01-07T00:52:55.244Z,22.1400
2023-01-07T00:53:06.396Z,22.1400
2023-01-07T00:53:17.601Z,22.1300
2023-01-07T00:53:28.786Z,22.1300
2023-01-07T00:53:39.867Z,22.1300
2023-01-07T00:53:50.951Z,22.1200
2023-01-07T00:54:01.985Z,22.1200
2023-01-07T00:54:13.061Z,22.1200
2023-01-07T00:54:24.168Z,22.1200
2023-01-07T00:54:35.359Z,22.1200
2023-01-07T00:54:46.556Z,22.1200
2023-01-07T00:54:57.759Z,22.1200
2023-01-07T00:55:08.820Z,22.1200
2023-01-07T00:55:19.887Z,22.1100
2023-01-07T00:55:31.018Z,22.1100
2023-01-07T00:55:42.240Z,22.1000
2023-01-07T00:55:53.436Z,22.1000
2023-01-07T00:56:04.660Z,22.1000
2023-01-07T00:56:15.840Z,22.1000
2023-01-07T00:56:27.097Z,22.1000
2023-01-07T00:56:38.307Z,22.0900
2023-01-07T00:56:49.430Z,22.0900
2023-01-07T00:57:00.690Z,22.0900
2023-01-07T00:57:11.752Z,22.0900
2023-01-07T00:57:22.830Z,22.0900
2023-01-07T00:57:33.909Z,22.0900
2023-01-07T00:57:45.149Z,22.0900
2023-01-07T00:57:56.319Z,22.1000
2023-01-07T00:58:07.498Z,22.1000
2023-01-07T00:58:18.708Z,22.1000
2023-01-07T00:58:29.914Z,22.1000
2023-01-07T00:58:41.120Z,22.1000
2023-01-07T00:58:52.307Z,22.1000
2023-01-07T00:59:03.521Z,22.1000
2023-01-07T00:59:14.589Z,22.1000
2023-01-07T00:59:25.646Z,22.1000
2023-01-07T00:59:36.808Z,22.1000
2023-01-07T00:59:47.993Z,22.1000
2023-01-07T00:59:59.184Z,22.1000
2023-01-07T01:00:10.412Z,22.1100
2023-01-07T01:00:21.588Z,22.1100
2023-01-07T01:00:32.864Z,22.1000
2023-01-07T01:00:44.156Z,22.1100
2023-01-07T01:00:55.397Z,22.1100
2023-01-07T01:01:06.908Z,22.1000
2023-01-07T01:01:18.405Z,22.1000
2023-01-07T01:01:29.730Z,22.0900
2023-01-07T01:01:41.181Z,22.0900
2023-01-07T01:01:52.545Z,22.0900
2023-01-07T01:02:03.864Z,22.0800
2023-01-07T01:02:14.982Z,22.0800
2023-01-07T01:02:26.147Z,22.0800
2023-01-07T01:02:37.384Z,22.0800
2023-01-07T01:02:48.583Z,22.0700
2023-01-07T01:02:59.618Z,22.0700
2023-01-07T01:03:10.690Z,22.0700
2023-01-07T01:03:21.759Z,22.0700
2023-01-07T01:03:32.955Z,22.0700
2023-01-07T01:03:44.139Z,22.0700
2023-01-07T01:03:55.351Z,22.0700
2023-01-07T01:04:06.555Z,22.0700
2023-01-07T01:04:17.770Z,22.0700
2023-01-07T01:04:28.951Z,22.0700
2023-01-07T01:04:40.161Z,22.0700
2023-01-07T01:04:51.339Z,22.0800
2023-01-07T01:05:02.563Z,22.0800
2023-01-07T01:05:13.625Z,22.0900
2023-01-07T01:05:24.701Z,22.0900
2023-01-07T01:05:35.872Z,22.0900
2023-01-07T01:05:46.947Z,22.0900
2023-01-07T01:05:58.090Z,22.0800
2023-01-07T01:06:09.439Z,22.0800
2023-01-07T01:06:20.500Z,22.0700
2023-01-07T01:06:31.565Z,22.0700
2023-01-07T01:06:42.661Z,22.0700
2023-01-07T01:06:53.909Z,22.0700
2023-01-07T01:07:05.107Z,22.0700
2023-01-07T01:07:16.438Z,22.0700
2023-01-07T01:07:27.465Z,22.0700
2023-01-07T01:07:38.720Z,22.0700
2023-01-07T01:07:49.961Z,22.0800
2023-01-07T01:08:01.108Z,22.0800
2023-01-07T01:08:12.308Z,22.0800
2023-01-07T01:08:23.359Z,22.0800
2023-01-07T01:08:34.409Z,22.0700
2023-01-07T01:08:45.595Z,22.0800
2023-01-07T01:08:56.640Z,22.0900
2023-01-07T01:09:07.715Z,22.0900
2023-01-07T01:09:18.870Z,22.0900
2023-01-07T01:09:30.083Z,22.0900
2023-01-07T01:09:41.139Z,22.1000
2023-01-07T01:09:52.224Z,22.1000
2023-01-07T01:10:03.356Z,22.1000
2023-01-07T01:10:14.397Z,22.1000
2023-01-07T01:10:25.441Z,22.1100
2023-01-07T01:10:36.625Z,22.1100
2023-01-07T01:10:47.705Z,22.1000
2023-01-07T01:10:58.767Z,22.1000
2023-01-07T01:11:09.918Z,22.1000
2023-01-07T01:11:20.998Z,22.1000
2023-01-07T01:11:32.067Z,22.1000
2023-01-07T01:11:43.203Z,22.1100
2023-01-07T01:11:54.278Z,22.1000
2023-01-07T01:12:05.345Z,22.1000
2023-01-07T01:12:16.463Z,22.1000
2023-01-07T01:12:27.569Z,22.1000
2023-01-07T01:12:38.640Z,22.1000
2023-01-07T01:12:49.757Z,22.1000
2023-01-07T01:13:00.833Z,22.1000
2023-01-07T01:13:11.910Z,22.1000
2023-01-07T01:13:23.025Z,22.1000
2023-01-07T01:13:34.078Z,22.0900
2023-01-07T01:13:45.139Z,22.0900
2023-01-07T01:13:56.325Z,22.0900
2023-01-07T01:14:07.389Z,22.0900
2023-01-07T01:14:18.496Z,22.0900
2023-01-07T01:14:29.601Z,22.0900
2023-01-07T01:14:40.795Z,22.0900
2023-01-07T01:14:51.838Z,22.0900
2023-01-07T01:15:02.910Z,22.0900
2023-01-07T01:15:13.968Z,22.0900
2023-01-07T01:15:25.029Z,22.0900
2023-01-07T01:15:36.153Z,22.0900
2023-01-07T01:15:47.220Z,22.0900
2023-01-07T01:15:58.358Z,22.0900
2023-01-07T01:16:09.599Z,22.0900
2023-01-07T01:16:20.764Z,22.0900
2023-01-07T01:16:31.871Z,22.0900
2023-01-07T01:16:43.224Z,22.1000
2023-01-07T01:16:54.595Z,22.0900
2023-01-07T01:17:05.741Z,22.0900
2023-01-07T01:17:16.799Z,22.0900
2023-01-07T01:17:27.908Z,22.0900
2023-01-07T01:17:39.025Z,22.1000
2023-01-07T01:17:50.075Z,22.1000
2023-01-07T01:18:01.194Z,22.1000
2023-01-07T01:18:12.329Z,22.1000
2023-01-07T01:18:23.386Z,22.1000
2023-01-07T01:18:34.461Z,22.1000
2023-01-07T01:18:45.603Z,22.1100
2023-01-07T01:18:56.789Z,22.1100
2023-01-07T01:19:08.007Z,22.1100
2023-01-07T01:19:19.195Z,22.1100
2023-01-07T01:19:30.247Z,22.1100
2023-01-07T01:19:41.309Z,22.1100
2023-01-07T01:19:52.471Z,22.1100
2023-01-07T01:20:03.675Z,22.1100
2023-01-07T01:20:14.868Z,22.1100
2023-01-07T01:20:25.973Z,22.1100
2023-01-07T01:20:37.030Z,22.1100
2023-01-07T01:20:48.139Z,22.1100
2023-01-07T01:20:59.362Z,22.1000
2023-01-07T01:21:10.454Z,22.1000
2023-01-07T01:21:21.525Z,22.0900
2023-01-07T01:21:32.629Z,22.0900
2023-01-07T01:21:43.706Z,22.1000
2023-01-07T01:21:54.760Z,22.1000
2023-01-07T01:22:05.924Z,22.1000
2023-01-07T01:22:17.121Z,22.1000
2023-01-07T01:22:28.452Z,22.1000
2023-01-07T01:22:39.501Z,22.1000
2023-01-07T01:22:50.553Z,22.1000
2023-01-07T01:23:01.638Z,22.1000
2023-01-07T01:23:12.842Z,22.1000
2023-01-07T01:23:23.989Z,22.1000
2023-01-07T01:23:35.191Z,22.1000
2023-01-07T01:23:46.396Z,22.1000
2023-01-07T01:23:57.446Z,22.0900
2023-01-07T01:24:08.509Z,22.0900
2023-01-07T01:24:19.679Z,22.0900
2023-01-07T01:24:30.732Z,22.0900
2023-01-07T01:24:41.839Z,22.0900
2023-01-07T01:24:52.949Z,22.1000
2023-01-07T01:25:04.027Z,22.1000
2023-01-07T01:25:15.080Z,22.1000
2023-01-07T01:25:26.235Z,22.1000
2023-01-07T01:25:37.265Z,22.1000
2023-01-07T01:25:48.325Z,22.1000
2023-01-07T01:25:59.498Z,22.1000
2023-01-07T01:26:10.560Z,22.1100
2023-01-07T01:26:21.631Z,22.1100
2023-01-07T01:26:32.789Z,22.1000
2023-01-07T01:26:43.865Z,22.1000
2023-01-07T01:26:54.936Z,22.1000
2023-01-07T01:27:06.089Z,22.1000
2023-01-07T01:27:17.150Z,22.1000
2023-01-07T01:27:28.220Z,22.1000
2023-01-07T01:27:39.358Z,22.1000
2023-01-07T01:27:50.425Z,22.0900
2023-01-07T01:28:01.492Z,22.0900
2023-01-07T01:28:12.667Z,22.0900
2023-01-07T01:28:23.732Z,22.0900
2023-01-07T01:28:34.798Z,22.0800
2023-01-07T01:28:45.923Z,22.0800
2023-01-07T01:28:57.128Z,22.0800
2023-01-07T01:29:08.305Z,22.0700
2023-01-07T01:29:19.350Z,22.0800
2023-01-07T01:29:30.422Z,22.0800
2023-01-07T01:29:41.611Z,22.0800
2023-01-07T01:29:52.794Z,22.0800
2023-01-07T01:30:04.004Z,22.0800
2023-01-07T01:30:15.185Z,22.0800
2023-01-07T01:30:26.402Z,22.0800
2023-01-07T01:30:37.581Z,22.0800
2023-01-07T01:30:48.784Z,22.0900
2023-01-07T01:30:59.826Z,22.0900
2023-01-07T01:31:10.985Z,22.0900
2023-01-07T01:31:22.175Z,22.0900
2023-01-07T01:31:33.307Z,22.0900
2023-01-07T01:31:44.552Z,22.0900
2023-01-07T01:31:55.687Z,22.0900
2023-01-07T01:32:06.860Z,22.0900
2023-01-07T01:32:17.920Z,22.0900
2023-01-07T01:32:28.991Z,22.0900
2023-01-07T01:32:40.088Z,22.0900
2023-01-07T01:32:51.120Z,22.0900
2023-01-07T01:33:02.246Z,22.0900
2023-01-07T01:33:13.392Z,22.0900
2023-01-07T01:33:24.460Z,22.0900
2023-01-07T01:33:35.507Z,22.0900
2023-01-07T01:33:46.549Z,22.0900
2023-01-07T01:33:57.626Z,22.0900
2023-01-07T01:34:08.799Z,22.0900
2023-01-07T01:34:19.860Z,22.0900
2023-01-07T01:34:30.915Z,22.1000
2023-01-07T01:34:42.069Z,22.0900
2023-01-07T01:34:53.164Z,22.0900
2023-01-07T01:35:04.248Z,22.0900
2023-01-07T01:35:15.276Z,22.1000
2023-01-07T01:35:26.356Z,22.1000
2023-01-07T01:35:37.431Z,22.1000
2023-01-07T01:35:48.628Z,22.1000
2023-01-07T01:35:59.669Z,22.1000
2023-01-07T01:36:10.719Z,22.1000
2023-01-07T01:36:21.918Z,22.0900
2023-01-07T01:36:33.033Z,22.0900
2023-01-07T01:36:44.100Z,22.0900
2023-01-07T01:36:55.185Z,22.0800
2023-01-07T01:37:06.239Z,22.0900
2023-01-07T01:37:17.298Z,22.0900
2023-01-07T01:37:28.489Z,22.0900
2023-01-07T01:37:39.780Z,22.0800
2023-01-07T01:37:50.882Z,22.0800
2023-01-07T01:38:02.066Z,22.0700
2023-01-07T01:38:13.145Z,22.0700
2023-01-07T01:38:24.337Z,22.0700
2023-01-07T01:38:35.439Z,22.0700
2023-01-07T01:38:46.539Z,22.0700
2023-01-07T01:38:57.755Z,22.0700
2023-01-07T01:39:08.961Z,22.0600
2023-01-07T01:39:20.155Z,22.0500
2023-01-07T01:39:31.391Z,22.0500
2023-01-07T01:39:42.572Z,22.0600
2023-01-07T01:39:53.742Z,22.0600
2023-01-07T01:40:04.959Z,22.0600
2023-01-07T01:40:16.020Z,22.0600
2023-01-07T01:40:27.099Z,22.0700
2023-01-07T01:40:38.220Z,22.0700
2023-01-07T01:40:49.275Z,22.0700
2023-01-07T01:41:00.318Z,22.0700
2023-01-07T01:41:11.522Z,22.0700
2023-01-07T01:41:22.577Z,22.0800
2023-01-07T01:41:33.639Z,22.0700
2023-01-07T01:41:44.780Z,22.0700
2023-01-07T01:41:55.835Z,22.0700
2023-01-07T01:42:06.908Z,22.0700
2023-01-07T01:42:18.078Z,22.0700
2023-01-07T01:42:29.144Z,22.0700
2023-01-07T01:42:40.375Z,22.0700
2023-01-07T01:42:51.449Z,22.0700
2023-01-07T01:43:02.507Z,22.0700
2023-01-07T01:43:13.579Z,22.0700
2023-01-07T01:43:24.679Z,22.0700
2023-01-07T01:43:35.775Z,22.0700
2023-01-07T01:43:46.821Z,22.0600
2023-01-07T01:43:57.937Z,22.0700
2023-01-07T01:44:09.120Z,22.0700
2023-01-07T01:44:20.307Z,22.0800
2023-01-07T01:44:31.520Z,22.0800
2023-01-07T01:44:42.587Z,22.0800
2023-01-07T01:44:53.648Z,22.0800
2023-01-07T01:45:04.791Z,22.0900
2023-01-07T01:45:16.007Z,22.0900
2023-01-07T01:45:27.194Z,22.0900
2023-01-07T01:45:38.399Z,22.0800
2023-01-07T01:45:49.580Z,22.0800
2023-01-07T01:46:00.824Z,22.0800
2023-01-07T01:46:11.913Z,22.0800
2023-01-07T01:46:23.049Z,22.0800
2023-01-07T01:46:34.187Z,22.0800
2023-01-07T01:46:45.298Z,22.0800
2023-01-07T01:46:56.533Z,22.0800
2023-01-07T01:47:07.695Z,22.0800
2023-01-07T01:47:18.869Z,22.0700
2023-01-07T01:47:29.926Z,22.0700
2023-01-07T01:47:40.989Z,22.0700
2023-01-07T01:47:52.040Z,22.0700
2023-01-07T01:48:03.118Z,22.0700
2023-01-07T01:48:14.235Z,22.0700
2023-01-07T01:48:25.299Z,22.0700
2023-01-07T01:48:36.387Z,22.0700
2023-01-07T01:48:47.519Z,22.0700
2023-01-07T01:48:58.560Z,22.0800
2023-01-07T01:49:09.630Z,22.0800
2023-01-07T01:49:20.801Z,22.0800
2023-01-07T01:49:31.979Z,22.0700
2023-01-07T01:49:43.202Z,22.0700
2023-01-07T01:49:54.385Z,22.0700
2023-01-07T01:50:05.459Z,22.0700
2023-01-07T01:50:16.532Z,22.0700
2023-01-07T01:50:27.685Z,22.0700
2023-01-07T01:50:38.861Z,22.0700
2023-01-07T01:50:49.932Z,22.0700
2023-01-07T01:51:00.989Z,22.0700
2023-01-07T01:51:12.046Z,22.0700
2023-01-07T01:51:23.115Z,22.0800
2023-01-07T01:51:34.164Z,22.0700
2023-01-07T01:51:45.224Z,22.0700
2023-01-07T01:51:56.300Z,22.0600
2023-01-07T01:52:07.428Z,22.0600
2023-01-07T01:52:18.496Z,22.0600
2023-01-07T01:52:29.583Z,22.0600
2023-01-07T01:52:40.812Z,22.0700
2023-01-07T01:52:51.966Z,22.0700
2023-01-07T01:53:03.015Z,22.0700
2023-01-07T01:53:14.089Z,22.0700
2023-01-07T01:53:25.146Z,22.0700
2023-01-07T01:53:36.326Z,22.0800
2023-01-07T01:53:47.385Z,22.0800
2023-01-07T01:53:58.550Z,22.0800
2023-01-07T01:54:09.761Z,22.0800
2023-01-07T01:54:20.947Z,22.0700
2023-01-07T01:54:31.989Z,22.0700
2023-01-07T01:54:43.064Z,22.0700
2023-01-07T01:54:54.256Z,22.0700
2023-01-07T01:55:05.299Z,22.0700
2023-01-07T01:55:16.359Z,22.0700
2023-01-07T01:55:27.499Z,22.0700
2023-01-07T01:55:38.557Z,22.0700
2023-01-07T01:55:49.670Z,22.0700
2023-01-07T01:56:00.813Z,22.0800
2023-01-07T01:56:11.857Z,22.0800
2023-01-07T01:56:22.919Z,22.0700
2023-01-07T01:56:34.075Z,22.0800
2023-01-07T01:56:45.164Z,22.0800
2023-01-07T01:56:56.253Z,22.0700
2023-01-07T01:57:07.341Z,22.0700
2023-01-07T01:57:18.405Z,22.0800
2023-01-07T01:57:29.489Z,22.0800
2023-01-07T01:57:40.671Z,22.0800
2023-01-07T01:57:51.705Z,22.0700
2023-01-07T01:58:02.766Z,22.0700
2023-01-07T01:58:13.830Z,22.0800
2023-01-07T01:58:24.906Z,22.0700
2023-01-07T01:58:36.029Z,22.0800
2023-01-07T01:58:47.246Z,22.0800
2023-01-07T01:58:58.328Z,22.0800
2023-01-07T01:59:09.403Z,22.0800
2023-01-07T01:59:20.474Z,22.0800
2023-01-07T01:59:31.673Z,22.0800
2023-01-07T01:59:42.866Z,22.0800
2023-01-07T01:59:54.070Z,22.0700
2023-01-07T02:00:05.123Z,22.0700
2023-01-07T02:00:16.191Z,22.0700
2023-01-07T02:00:27.345Z,22.0600
2023-01-07T02:00:38.678Z,22.0600
2023-01-07T02:00:49.889Z,22.0600
2023-01-07T02:01:01.106Z,22.0600
2023-01-07T02:01:12.399Z,22.0600
2023-01-07T02:01:23.841Z,22.0600
2023-01-07T02:01:35.080Z,22.0600
2023-01-07T02:01:46.618Z,22.0600
2023-01-07T02:01:58.091Z,22.0600
2023-01-07T02:02:09.682Z,22.0600
2023-01-07T02:02:21.043Z,22.0600
2023-01-07T02:02:32.131Z,22.0600
2023-01-07T02:02:43.395Z,22.0600
2023-01-07T02:02:54.538Z,22.0600
2023-01-07T02:03:05.755Z,22.0600
2023-01-07T02:03:16.849Z,22.0600
2023-01-07T02:03:27.920Z,22.0600
2023-01-07T02:03:39.037Z,22.0600
2023-01-07T02:03:50.106Z,22.0600
2023-01-07T02:04:01.177Z,22.0700
2023-01-07T02:04:12.318Z,22.0700
2023-01-07T02:04:23.519Z,22.0700
2023-01-07T02:04:34.708Z,22.0700
2023-01-07T02:04:45.897Z,22.0700
2023-01-07T02:04:57.120Z,22.0700
2023-01-07T02:05:08.214Z,22.0700
2023-01-07T02:05:19.254Z,22.0600
2023-01-07T02:05:30.397Z,22.0700
2023-01-07T02:05:41.441Z,22.0700
2023-01-07T02:05:52.514Z,22.0700
2023-01-07T02:06:03.555Z,22.0800
2023-01-07T02:06:14.609Z,22.0700
2023-01-07T02:06:25.668Z,22.0700
2023-01-07T02:06:36.751Z,22.0600
2023-01-07T02:06:47.798Z,22.0600
2023-01-07T02:06:59.035Z,22.0600
2023-01-07T02:07:10.087Z,22.0600
2023-01-07T02:07:21.149Z,22.0600
2023-01-07T02:07:32.321Z,22.0600
2023-01-07T02:07:43.423Z,22.0600
2023-01-07T02:07:54.594Z,22.0600
2023-01-07T02:08:05.607Z,22.0600
2023-01-07T02:08:16.668Z,22.0600
2023-01-07T02:08:27.715Z,22.0600
2023-01-07T02:08:38.877Z,22.0500
2023-01-07T02:08:50.060Z,22.0500
2023-01-07T02:09:01.309Z,22.0600
2023-01-07T02:09:12.468Z,22.0600
2023-01-07T02:09:23.683Z,22.0600
2023-01-07T02:09:34.865Z,22.0600
2023-01-07T02:09:46.079Z,22.0500
2023-01-07T02:09:57.265Z,22.0500
2023-01-07T02:10:08.481Z,22.0500
2023-01-07T02:10:19.550Z,22.0500
2023-01-07T02:10:30.605Z,22.0500
2023-01-07T02:10:41.759Z,22.0500
2023-01-07T02:10:52.855Z,22.0500
2023-01-07T02:11:03.920Z,22.0400
2023-01-07T02:11:15.029Z,22.0400
2023-01-07T02:11:26.219Z,22.0300
2023-01-07T02:11:37.266Z,22.0300
2023-01-07T02:11:48.358Z,22.0300
2023-01-07T02:11:59.506Z,22.0300
2023-01-07T02:12:10.709Z,22.0300
2023-01-07T02:12:21.917Z,22.0200
2023-01-07T02:12:33.000Z,22.0300
2023-01-07T02:12:44.052Z,22.0300
2023-01-07T02:12:55.187Z,22.0300
2023-01-07T02:13:06.395Z,22.0300
2023-01-07T02:13:17.585Z,22.0300
2023-01-07T02:13:28.787Z,22.0200
2023-01-07T02:13:39.870Z,22.0200
2023-01-07T02:13:51.105Z,22.0200
2023-01-07T02:14:02.201Z,22.0300
2023-01-07T02:14:13.272Z,22.0300
2023-01-07T02:14:24.464Z,22.0300
2023-01-07T02:14:35.521Z,22.0400
2023-01-07T02:14:46.567Z,22.0400